createdAt,value
2016-02-23T00:00:22.372Z,1001.34
2016-02-23T00:01:22.360Z,1001.3
2016-02-23T00:02:22.347Z,1001.29
2016-02-23T00:03:22.319Z,1001.3
2016-02-23T00:04:22.305Z,1001.35
2016-02-23T00:05:23.050Z,1001.33
2016-02-23T00:06:22.272Z,1001.34
2016-02-23T00:07:23.447Z,1001.31
2016-02-23T00:08:23.121Z,1001.31
2016-02-23T00:09:22.218Z,1001.27
2016-02-23T00:10:23.611Z,1001.27
2016-02-23T00:11:23.629Z,1001.26
2016-02-23T00:12:23.492Z,1001.24
2016-02-23T00:13:23.697Z,1001.27
2016-02-23T00:14:23.310Z,1001.26
2016-02-23T00:15:23.515Z,1001.25
2016-02-23T00:16:23.533Z,1001.23
2016-02-23T00:17:23.896Z,1001.23
2016-02-23T00:18:23.491Z,1001.23
2016-02-23T00:19:23.369Z,1001.2
2016-02-23T00:20:23.388Z,1001.22
2016-02-23T00:21:23.532Z,1001.22
2016-02-23T00:22:23.327Z,1001.23
2016-02-23T00:23:23.600Z,1001.23
2016-02-23T00:24:23.263Z,1001.27
2016-02-23T00:25:22.879Z,1001.23
2016-02-23T00:26:21.902Z,1001.24
2016-02-23T00:27:21.865Z,1001.23
2016-02-23T00:28:21.847Z,1001.24
2016-02-23T00:29:21.846Z,1001.23
2016-02-23T00:30:21.814Z,1001.25
2016-02-23T00:31:21.782Z,1001.22
2016-02-23T00:32:21.765Z,1001.17
2016-02-23T00:33:21.750Z,1001.23
2016-02-23T00:34:21.737Z,1001.22
2016-02-23T00:35:21.707Z,1001.23
2016-02-23T00:36:21.693Z,1001.21
2016-02-23T00:37:21.678Z,1001.24
2016-02-23T00:38:21.665Z,1001.27
2016-02-23T00:39:21.635Z,1001.24
2016-02-23T00:40:21.623Z,1001.25
2016-02-23T00:41:21.608Z,1001.3
2016-02-23T00:42:21.586Z,1001.31
2016-02-23T00:43:21.573Z,1001.28
2016-02-23T00:44:21.560Z,1001.28
2016-02-23T00:45:21.531Z,1001.27
2016-02-23T00:46:21.520Z,1001.29
2016-02-23T00:47:21.506Z,1001.31
2016-02-23T00:48:21.492Z,1001.27
2016-02-23T00:49:21.481Z,1001.23
2016-02-23T00:50:21.451Z,1001.26
2016-02-23T00:51:21.438Z,1001.29
2016-02-23T00:52:21.425Z,1001.26
2016-02-23T00:53:21.397Z,1001.28
2016-02-23T00:54:21.384Z,1001.27
2016-02-23T00:55:21.372Z,1001.27
2016-02-23T00:56:21.342Z,1001.28
2016-02-23T00:57:21.345Z,1001.23
2016-02-23T00:58:21.317Z,1001.26
2016-02-23T00:59:21.304Z,1001.21
2016-02-23T01:00:21.275Z,1001.21
2016-02-23T01:01:21.263Z,1001.19
2016-02-23T01:02:21.249Z,1001.18
2016-02-23T01:03:21.236Z,1001.15
2016-02-23T01:04:21.224Z,1001.13
2016-02-23T01:05:21.210Z,1001.12
2016-02-23T01:06:21.182Z,1001.09
2016-02-23T01:07:21.169Z,1001.1
2016-02-23T01:08:21.156Z,1001.11
2016-02-23T01:09:21.127Z,1001.11
2016-02-23T01:10:21.115Z,1001.1
2016-02-23T01:11:21.101Z,1001.11
2016-02-23T01:12:21.074Z,1001.1
2016-02-23T01:13:21.060Z,1001.15
2016-02-23T01:14:21.047Z,1001.12
2016-02-23T01:15:21.034Z,1001.12
2016-02-23T01:16:21.006Z,1001.19
2016-02-23T01:17:20.993Z,1001.21
2016-02-23T01:18:20.980Z,1001.26
2016-02-23T01:19:20.967Z,1001.25
2016-02-23T01:20:20.939Z,1001.24
2016-02-23T01:21:20.926Z,1001.25
2016-02-23T01:22:20.912Z,1001.25
2016-02-23T01:23:20.884Z,1001.25
2016-02-23T01:24:20.871Z,1001.22
2016-02-23T01:25:20.859Z,1001.22
2016-02-23T01:26:20.861Z,1001.24
2016-02-23T01:27:20.832Z,1001.21
2016-02-23T01:28:20.803Z,1001.26
2016-02-23T01:29:20.791Z,1001.22
2016-02-23T01:30:20.778Z,1001.22
2016-02-23T01:31:20.749Z,1001.22
2016-02-23T01:32:20.736Z,1001.25
2016-02-23T01:33:20.724Z,1001.24
2016-02-23T01:34:20.711Z,1001.25
2016-02-23T01:35:20.682Z,1001.27
2016-02-23T01:36:20.668Z,1001.24
2016-02-23T01:37:20.657Z,1001.2
2016-02-23T01:38:20.643Z,1001.22
2016-02-23T01:39:20.615Z,1001.22
2016-02-23T01:40:20.602Z,1001.18
2016-02-23T01:41:20.588Z,1001.22
2016-02-23T01:42:20.576Z,1001.25
2016-02-23T01:43:20.548Z,1001.29
2016-02-23T01:44:20.534Z,1001.25
2016-02-23T01:45:20.521Z,1001.27
2016-02-23T01:46:20.509Z,1001.32
2016-02-23T01:47:20.479Z,1001.31
2016-02-23T01:48:20.467Z,1001.33
2016-02-23T01:49:20.454Z,1001.29
2016-02-23T01:50:20.425Z,1001.25
2016-02-23T01:51:20.412Z,1001.23
2016-02-23T01:52:20.400Z,1001.26
2016-02-23T01:53:20.386Z,1001.26
2016-02-23T01:54:20.358Z,1001.3
2016-02-23T01:55:20.345Z,1001.31
2016-02-23T01:56:20.332Z,1001.32
2016-02-23T01:57:20.336Z,1001.36
2016-02-23T01:58:20.306Z,1001.37
2016-02-23T01:59:20.277Z,1001.37
2016-02-23T02:00:20.265Z,1001.39
2016-02-23T02:01:20.252Z,1001.36
2016-02-23T02:02:20.238Z,1001.36
2016-02-23T02:03:20.210Z,1001.38
2016-02-23T02:04:20.197Z,1001.36
2016-02-23T02:05:20.185Z,1001.33
2016-02-23T02:06:20.156Z,1001.35
2016-02-23T02:07:20.143Z,1001.34
2016-02-23T02:08:20.115Z,1001.35
2016-02-23T02:09:20.102Z,1001.37
2016-02-23T02:10:20.088Z,1001.31
2016-02-23T02:11:20.075Z,1001.28
2016-02-23T02:12:20.063Z,1001.25
2016-02-23T02:13:20.034Z,1001.26
2016-02-23T02:14:20.021Z,1001.31
2016-02-23T02:15:20.009Z,1001.34
2016-02-23T02:16:19.995Z,1001.32
2016-02-23T02:17:19.967Z,1001.34
2016-02-23T02:18:19.954Z,1001.34
2016-02-23T02:19:19.940Z,1001.33
2016-02-23T02:20:19.912Z,1001.28
2016-02-23T02:21:19.900Z,1001.29
2016-02-23T02:22:19.887Z,1001.3
2016-02-23T02:23:19.873Z,1001.28
2016-02-23T02:24:19.845Z,1001.24
2016-02-23T02:25:19.832Z,1001.23
2016-02-23T02:26:19.819Z,1001.22
2016-02-23T02:27:19.791Z,1001.24
2016-02-23T02:28:19.778Z,1001.25
2016-02-23T02:29:19.764Z,1001.27
2016-02-23T02:30:19.757Z,1001.23
2016-02-23T02:31:19.728Z,1001.24
2016-02-23T02:32:19.715Z,1001.19
2016-02-23T02:33:19.702Z,1001.22
2016-02-23T02:34:19.674Z,1001.21
2016-02-23T02:35:19.660Z,1001.29
2016-02-23T02:36:19.648Z,1001.33
2016-02-23T02:37:19.635Z,1001.35
2016-02-23T02:38:19.606Z,1001.35
2016-02-23T02:39:19.594Z,1001.32
2016-02-23T02:40:19.580Z,1001.36
2016-02-23T02:41:19.582Z,1001.41
2016-02-23T02:42:19.540Z,1001.38
2016-02-23T02:43:19.526Z,1001.38
2016-02-23T02:44:19.512Z,1001.36
2016-02-23T02:45:19.500Z,1001.34
2016-02-23T02:46:19.471Z,1001.34
2016-02-23T02:47:19.458Z,1001.34
2016-02-23T02:48:19.446Z,1001.37
2016-02-23T02:49:19.417Z,1001.36
2016-02-23T02:50:19.403Z,1001.36
2016-02-23T02:51:19.392Z,1001.3
2016-02-23T02:52:19.378Z,1001.26
2016-02-23T02:53:19.349Z,1001.34
2016-02-23T02:54:19.337Z,1001.31
2016-02-23T02:55:19.324Z,1001.34
2016-02-23T02:56:19.295Z,1001.33
2016-02-23T02:57:19.283Z,1001.39
2016-02-23T02:58:19.269Z,1001.4
2016-02-23T02:59:19.256Z,1001.38
2016-02-23T03:00:19.228Z,1001.4
2016-02-23T03:01:19.215Z,1001.39
2016-02-23T03:02:19.202Z,1001.35
2016-02-23T03:03:19.189Z,1001.39
2016-02-23T03:04:19.177Z,1001.38
2016-02-23T03:05:19.147Z,1001.33
2016-02-23T03:06:19.135Z,1001.36
2016-02-23T03:07:19.122Z,1001.34
2016-02-23T03:08:19.093Z,1001.34
2016-02-23T03:09:19.080Z,1001.32
2016-02-23T03:10:19.067Z,1001.35
2016-02-23T03:11:19.054Z,1001.34
2016-02-23T03:12:19.025Z,1001.32
2016-02-23T03:13:19.013Z,1001.34
2016-02-23T03:14:19.000Z,1001.32
2016-02-23T03:15:18.987Z,1001.29
2016-02-23T03:16:18.959Z,1001.25
2016-02-23T03:17:18.945Z,1001.27
2016-02-23T03:18:18.932Z,1001.24
2016-02-23T03:19:18.904Z,1001.25
2016-02-23T03:20:18.891Z,1001.27
2016-02-23T03:21:18.878Z,1001.24
2016-02-23T03:22:18.865Z,1001.25
2016-02-23T03:23:18.836Z,1001.26
2016-02-23T03:24:18.824Z,1001.26
2016-02-23T03:25:18.811Z,1001.26
2016-02-23T03:26:18.782Z,1001.26
2016-02-23T03:27:18.770Z,1001.27
2016-02-23T03:28:18.756Z,1001.34
2016-02-23T03:29:18.744Z,1001.34
2016-02-23T03:30:18.714Z,1001.35
2016-02-23T03:31:18.702Z,1001.34
2016-02-23T03:32:18.688Z,1001.35
2016-02-23T03:33:18.677Z,1001.37
2016-02-23T03:34:18.647Z,1001.37
2016-02-23T03:35:18.634Z,1001.36
2016-02-23T03:36:18.622Z,1001.36
2016-02-23T03:37:18.640Z,1001.34
2016-02-23T03:38:18.580Z,1001.34
2016-02-23T03:39:18.567Z,1001.36
2016-02-23T03:40:18.554Z,1001.4
2016-02-23T03:41:18.526Z,1001.38
2016-02-23T03:42:18.513Z,1001.41
2016-02-23T03:43:18.499Z,1001.39
2016-02-23T03:44:18.487Z,1001.4
2016-02-23T03:45:18.473Z,1001.42
2016-02-23T03:46:18.446Z,1001.39
2016-02-23T03:47:18.432Z,1001.43
2016-02-23T03:48:18.403Z,1001.41
2016-02-23T03:49:18.391Z,1001.47
2016-02-23T03:50:18.378Z,1001.46
2016-02-23T03:51:18.365Z,1001.43
2016-02-23T03:52:18.337Z,1001.4
2016-02-23T03:53:18.323Z,1001.38
2016-02-23T03:54:18.311Z,1001.4
2016-02-23T03:55:18.298Z,1001.41
2016-02-23T03:56:18.269Z,1001.38
2016-02-23T03:57:18.255Z,1001.42
2016-02-23T03:58:18.259Z,1001.38
2016-02-23T03:59:18.230Z,1001.41
2016-02-23T04:00:18.202Z,1001.33
2016-02-23T04:01:18.189Z,1001.36
2016-02-23T04:02:18.160Z,1001.34
2016-02-23T04:03:18.147Z,1001.33
2016-02-23T04:04:18.135Z,1001.37
2016-02-23T04:05:18.121Z,1001.37
2016-02-23T04:06:18.108Z,1001.41
2016-02-23T04:07:18.080Z,1001.45
2016-02-23T04:08:18.066Z,1001.41
2016-02-23T04:09:18.054Z,1001.49
2016-02-23T04:10:18.041Z,1001.49
2016-02-23T04:11:18.013Z,1001.51
2016-02-23T04:12:17.999Z,1001.53
2016-02-23T04:13:17.987Z,1001.52
2016-02-23T04:14:17.958Z,1001.54
2016-02-23T04:15:17.960Z,1001.54
2016-02-23T04:16:17.932Z,1001.54
2016-02-23T04:17:17.920Z,1001.56
2016-02-23T04:18:17.906Z,1001.55
2016-02-23T04:19:17.878Z,1001.57
2016-02-23T04:20:17.865Z,1001.6
2016-02-23T04:21:17.851Z,1001.57
2016-02-23T04:22:17.839Z,1001.56
2016-02-23T04:23:17.811Z,1001.59
2016-02-23T04:24:17.797Z,1001.55
2016-02-23T04:25:17.784Z,1001.56
2016-02-23T04:26:17.756Z,1001.55
2016-02-23T04:27:17.742Z,1001.58
2016-02-23T04:28:17.731Z,1001.57
2016-02-23T04:29:17.702Z,1001.58
2016-02-23T04:30:17.704Z,1001.58
2016-02-23T04:31:17.676Z,1001.6
2016-02-23T04:32:17.663Z,1001.61
2016-02-23T04:33:17.634Z,1001.62
2016-02-23T04:34:17.622Z,1001.63
2016-02-23T04:35:17.608Z,1001.66
2016-02-23T04:36:17.596Z,1001.66
2016-02-23T04:37:17.583Z,1001.7
2016-02-23T04:38:17.554Z,1001.68
2016-02-23T04:39:17.540Z,1001.7
2016-02-23T04:40:17.527Z,1001.68
2016-02-23T04:41:17.515Z,1001.72
2016-02-23T04:42:17.487Z,1001.73
2016-02-23T04:43:17.473Z,1001.7
2016-02-23T04:44:17.445Z,1001.71
2016-02-23T04:45:17.432Z,1001.73
2016-02-23T04:46:17.419Z,1001.7
2016-02-23T04:47:17.407Z,1001.68
2016-02-23T04:48:17.393Z,1001.67
2016-02-23T04:49:17.364Z,1001.67
2016-02-23T04:50:17.352Z,1001.69
2016-02-23T04:51:17.339Z,1001.71
2016-02-23T04:52:17.309Z,1001.7
2016-02-23T04:53:17.298Z,1001.72
2016-02-23T04:54:17.284Z,1001.68
2016-02-23T04:55:17.256Z,1001.72
2016-02-23T04:56:17.243Z,1001.69
2016-02-23T04:57:17.230Z,1001.68
2016-02-23T04:58:17.217Z,1001.72
2016-02-23T04:59:17.189Z,1001.66
2016-02-23T05:00:17.175Z,1001.72
2016-02-23T05:01:17.163Z,1001.73
2016-02-23T05:02:17.149Z,1001.73
2016-02-23T05:03:17.122Z,1001.7
2016-02-23T05:04:17.108Z,1001.7
2016-02-23T05:05:17.095Z,1001.71
2016-02-23T05:06:17.066Z,1001.71
2016-02-23T05:07:17.054Z,1001.71
2016-02-23T05:08:17.041Z,1001.69
2016-02-23T05:09:17.028Z,1001.66
2016-02-23T05:10:17.015Z,1001.71
2016-02-23T05:11:16.985Z,1001.65
2016-02-23T05:12:16.974Z,1001.69
2016-02-23T05:13:16.960Z,1001.68
2016-02-23T05:14:16.932Z,1001.71
2016-02-23T05:15:16.919Z,1001.71
2016-02-23T05:16:16.906Z,1001.72
2016-02-23T05:17:16.893Z,1001.69
2016-02-23T05:18:16.865Z,1001.69
2016-02-23T05:19:16.851Z,1001.7
2016-02-23T05:20:16.839Z,1001.67
2016-02-23T05:21:16.810Z,1001.68
2016-02-23T05:22:16.797Z,1001.69
2016-02-23T05:23:16.784Z,1001.69
2016-02-23T05:24:16.771Z,1001.71
2016-02-23T05:25:16.759Z,1001.71
2016-02-23T05:26:16.730Z,1001.67
2016-02-23T05:27:16.717Z,1001.67
2016-02-23T05:28:16.688Z,1001.68
2016-02-23T05:29:16.675Z,1001.71
2016-02-23T05:30:16.662Z,1001.75
2016-02-23T05:31:16.650Z,1001.74
2016-02-23T05:32:16.621Z,1001.77
2016-02-23T05:33:16.608Z,1001.78
2016-02-23T05:34:16.595Z,1001.78
2016-02-23T05:35:16.582Z,1001.82
2016-02-23T05:36:16.553Z,1001.76
2016-02-23T05:37:16.556Z,1001.76
2016-02-23T05:38:16.528Z,1001.8
2016-02-23T05:39:16.515Z,1001.79
2016-02-23T05:40:16.502Z,1001.82
2016-02-23T05:41:16.473Z,1001.85
2016-02-23T05:42:16.461Z,1001.83
2016-02-23T05:43:16.447Z,1001.87
2016-02-23T05:44:16.419Z,1001.86
2016-02-23T05:45:16.406Z,1001.87
2016-02-23T05:46:16.393Z,1001.88
2016-02-23T05:47:16.365Z,1001.86
2016-02-23T05:48:16.351Z,1001.86
2016-02-23T05:49:16.338Z,1001.92
2016-02-23T05:50:16.326Z,1001.91
2016-02-23T05:51:16.297Z,1001.9
2016-02-23T05:52:16.285Z,1001.92
2016-02-23T05:53:16.271Z,1001.91
2016-02-23T05:54:16.258Z,1001.9
2016-02-23T05:55:16.229Z,1001.9
2016-02-23T05:56:16.217Z,1001.92
2016-02-23T05:57:16.203Z,1001.95
2016-02-23T05:58:16.191Z,1001.97
2016-02-23T05:59:16.162Z,1001.96
2016-02-23T06:00:16.149Z,1001.95
2016-02-23T06:01:16.137Z,1001.95
2016-02-23T06:02:16.123Z,1001.95
2016-02-23T06:03:16.094Z,1002
2016-02-23T06:04:16.082Z,1001.96
2016-02-23T06:05:16.069Z,1001.98
2016-02-23T06:06:16.056Z,1001.96
2016-02-23T06:07:16.027Z,1001.95
2016-02-23T06:08:16.014Z,1001.98
2016-02-23T06:09:16.002Z,1001.97
2016-02-23T06:10:15.974Z,1001.97
2016-02-23T06:11:15.960Z,1001.99
2016-02-23T06:12:15.947Z,1001.95
2016-02-23T06:13:15.935Z,1001.95
2016-02-23T06:14:15.905Z,1001.99
2016-02-23T06:15:15.893Z,1001.98
2016-02-23T06:16:15.880Z,1002.05
2016-02-23T06:17:15.867Z,1002.06
2016-02-23T06:18:15.839Z,1002.08
2016-02-23T06:19:15.826Z,1002.09
2016-02-23T06:20:15.813Z,1002.06
2016-02-23T06:21:15.784Z,1002.11
2016-02-23T06:22:15.771Z,1002.1
2016-02-23T06:23:15.758Z,1002.1
2016-02-23T06:24:15.745Z,1002.07
2016-02-23T06:25:15.717Z,1002.1
2016-02-23T06:26:15.703Z,1002.1
2016-02-23T06:27:15.691Z,1002.15
2016-02-23T06:28:15.662Z,1002.13
2016-02-23T06:29:15.650Z,1002.15
2016-02-23T06:30:15.636Z,1002.15
2016-02-23T06:31:15.623Z,1002.13
2016-02-23T06:32:15.595Z,1002.1
2016-02-23T06:33:15.581Z,1002.12
2016-02-23T06:34:15.569Z,1002.11
2016-02-23T06:35:15.556Z,1002.11
2016-02-23T06:36:15.528Z,1002.12
2016-02-23T06:37:15.515Z,1002.09
2016-02-23T06:38:15.502Z,1002.08
2016-02-23T06:39:15.488Z,1002.08
2016-02-23T06:40:15.460Z,1002.11
2016-02-23T06:41:15.447Z,1002.1
2016-02-23T06:42:15.435Z,1002.1
2016-02-23T06:43:15.421Z,1002.05
2016-02-23T06:44:15.393Z,1002.08
2016-02-23T06:45:15.380Z,1002.09
2016-02-23T06:46:15.366Z,1002.11
2016-02-23T06:47:15.354Z,1002.1
2016-02-23T06:48:15.326Z,1002.12
2016-02-23T06:49:15.312Z,1002.13
2016-02-23T06:50:15.299Z,1002.18
2016-02-23T06:51:15.287Z,1002.13
2016-02-23T06:52:15.257Z,1002.14
2016-02-23T06:53:15.260Z,1002.18
2016-02-23T06:54:15.232Z,1002.16
2016-02-23T06:55:15.203Z,1002.17
2016-02-23T06:56:15.191Z,1002.17
2016-02-23T06:57:15.178Z,1002.15
2016-02-23T06:58:15.164Z,1002.15
2016-02-23T06:59:15.137Z,1002.15
2016-02-23T07:00:15.123Z,1002.16
2016-02-23T07:01:15.110Z,1002.16
2016-02-23T07:02:15.081Z,1002.16
2016-02-23T07:03:15.069Z,1002.18
2016-02-23T07:04:15.056Z,1002.18
2016-02-23T07:05:15.043Z,1002.19
2016-02-23T07:06:15.014Z,1002.2
2016-02-23T07:07:15.002Z,1002.2
2016-02-23T07:08:14.988Z,1002.2
2016-02-23T07:09:14.976Z,1002.19
2016-02-23T07:10:14.947Z,1002.21
2016-02-23T07:11:14.933Z,1002.26
2016-02-23T07:12:14.921Z,1002.27
2016-02-23T07:13:14.893Z,1002.25
2016-02-23T07:14:14.880Z,1002.29
2016-02-23T07:15:14.866Z,1002.26
2016-02-23T07:16:14.901Z,1002.28
2016-02-23T07:17:14.825Z,1002.27
2016-02-23T07:18:14.812Z,1002.3
2016-02-23T07:19:14.799Z,1002.36
2016-02-23T07:20:14.787Z,1002.33
2016-02-23T07:21:14.773Z,1002.39
2016-02-23T07:22:14.746Z,1002.37
2016-02-23T07:23:14.732Z,1002.4
2016-02-23T07:24:14.703Z,1002.37
2016-02-23T07:25:14.706Z,1002.37
2016-02-23T07:26:14.678Z,1002.38
2016-02-23T07:27:14.664Z,1002.33
2016-02-23T07:28:14.636Z,1002.37
2016-02-23T07:29:14.623Z,1002.38
2016-02-23T07:30:14.610Z,1002.39
2016-02-23T07:31:14.598Z,1002.46
2016-02-23T07:32:14.570Z,1002.46
2016-02-23T07:33:14.556Z,1002.46
2016-02-23T07:34:14.542Z,1002.45
2016-02-23T07:35:14.531Z,1002.5
2016-02-23T07:36:14.517Z,1002.5
2016-02-23T07:37:14.489Z,1002.52
2016-02-23T07:38:14.475Z,1002.56
2016-02-23T07:39:14.463Z,1002.55
2016-02-23T07:40:14.434Z,1002.57
2016-02-23T07:41:14.437Z,1002.52
2016-02-23T07:42:14.408Z,1002.55
2016-02-23T07:43:14.380Z,1002.57
2016-02-23T07:44:14.367Z,1002.58
2016-02-23T07:45:14.354Z,1002.55
2016-02-23T07:46:14.340Z,1002.57
2016-02-23T07:47:14.312Z,1002.58
2016-02-23T07:48:14.300Z,1002.59
2016-02-23T07:49:14.286Z,1002.55
2016-02-23T07:50:14.258Z,1002.56
2016-02-23T07:51:14.245Z,1002.56
2016-02-23T07:52:14.232Z,1002.57
2016-02-23T07:53:14.219Z,1002.61
2016-02-23T07:54:14.206Z,1002.62
2016-02-23T07:55:14.177Z,1002.61
2016-02-23T07:56:14.165Z,1002.62
2016-02-23T07:57:14.152Z,1002.66
2016-02-23T07:58:14.123Z,1002.7
2016-02-23T07:59:14.110Z,1002.74
2016-02-23T08:00:14.098Z,1002.72
2016-02-23T08:01:14.068Z,1002.72
2016-02-23T08:02:14.056Z,1002.78
2016-02-23T08:03:14.043Z,1002.74
2016-02-23T08:04:14.030Z,1002.77
2016-02-23T08:05:14.000Z,1002.78
2016-02-23T08:06:13.988Z,1002.77
2016-02-23T08:07:13.975Z,1002.83
2016-02-23T08:08:13.962Z,1002.84
2016-02-23T08:09:13.934Z,1002.87
2016-02-23T08:10:13.921Z,1002.87
2016-02-23T08:11:13.908Z,1002.88
2016-02-23T08:12:13.895Z,1002.88
2016-02-23T08:13:13.866Z,1002.91
2016-02-23T08:14:13.869Z,1002.89
2016-02-23T08:15:13.840Z,1002.88
2016-02-23T08:16:13.812Z,1002.89
2016-02-23T08:17:13.799Z,1002.88
2016-02-23T08:18:13.786Z,1002.94
2016-02-23T08:19:13.774Z,1002.94
2016-02-23T08:20:13.760Z,1002.92
2016-02-23T08:21:13.732Z,1002.97
2016-02-23T08:22:13.719Z,1002.93
2016-02-23T08:23:13.690Z,1002.97
2016-02-23T08:24:13.693Z,1002.99
2016-02-23T08:25:13.665Z,1002.98
2016-02-23T08:26:13.651Z,1002.95
2016-02-23T08:27:13.638Z,1002.98
2016-02-23T08:28:13.609Z,1003
2016-02-23T08:29:13.598Z,1002.98
2016-02-23T08:30:13.584Z,1002.98
2016-02-23T08:31:13.556Z,1003.01
2016-02-23T08:32:13.542Z,1003.01
2016-02-23T08:33:13.530Z,1003
2016-02-23T08:34:13.501Z,1003.01
2016-02-23T08:35:13.488Z,1003.09
2016-02-23T08:36:13.492Z,1003.02
2016-02-23T08:37:13.462Z,1003.01
2016-02-23T08:38:13.434Z,1003.07
2016-02-23T08:39:13.420Z,1003.04
2016-02-23T08:40:13.408Z,1003.03
2016-02-23T08:41:13.395Z,1003.1
2016-02-23T08:42:13.383Z,1003.06
2016-02-23T08:43:13.353Z,1003.07
2016-02-23T08:44:13.356Z,1003.09
2016-02-23T08:45:13.328Z,1003.1
2016-02-23T08:46:13.314Z,1003.08
2016-02-23T08:47:13.286Z,1003.04
2016-02-23T08:48:13.274Z,1003.03
2016-02-23T08:49:13.260Z,1003.04
2016-02-23T08:50:13.232Z,1003.01
2016-02-23T08:51:13.218Z,1003.02
2016-02-23T08:52:13.205Z,1003.01
2016-02-23T08:53:13.193Z,1003.06
2016-02-23T08:54:13.165Z,1003.07
2016-02-23T08:55:13.151Z,1003.07
2016-02-23T08:56:13.138Z,1003.08
2016-02-23T08:57:13.126Z,1003.1
2016-02-23T08:58:13.096Z,1003.13
2016-02-23T08:59:13.084Z,1003.06
2016-02-23T09:00:13.071Z,1003.09
2016-02-23T09:01:13.047Z,1003.1
2016-02-23T09:02:13.034Z,1003.07
2016-02-23T09:03:13.022Z,1003.05
2016-02-23T09:04:13.009Z,1003.11
2016-02-23T09:05:12.985Z,1003.08
2016-02-23T09:06:12.972Z,1003.11
2016-02-23T09:07:12.944Z,1003.06
2016-02-23T09:08:12.931Z,1003.06
2016-02-23T09:09:12.917Z,1003.06
2016-02-23T09:10:12.889Z,1003.08
2016-02-23T09:11:12.877Z,1003.06
2016-02-23T09:12:12.864Z,1003.06
2016-02-23T09:13:12.850Z,1003.08
2016-02-23T09:14:12.822Z,1003.07
2016-02-23T09:15:12.809Z,1003.08
2016-02-23T09:16:12.796Z,1003.05
2016-02-23T09:17:12.783Z,1003.06
2016-02-23T09:18:12.755Z,1003.05
2016-02-23T09:19:12.741Z,1003.03
2016-02-23T09:20:12.729Z,1003
2016-02-23T09:21:12.716Z,1003.02
2016-02-23T09:22:12.687Z,1003.05
2016-02-23T09:23:12.674Z,1003.04
2016-02-23T09:24:12.662Z,1003.01
2016-02-23T09:25:12.633Z,1003
2016-02-23T09:26:12.620Z,1002.98
2016-02-23T09:27:12.607Z,1003
2016-02-23T09:28:12.588Z,1002.98
2016-02-23T09:29:12.563Z,1002.98
2016-02-23T09:30:12.522Z,1003.02
2016-02-23T09:31:12.496Z,1003.02
2016-02-23T09:32:12.470Z,1003.04
2016-02-23T09:33:12.433Z,1003.05
2016-02-23T09:34:12.415Z,1003.02
2016-02-23T09:35:12.398Z,1003.04
2016-02-23T09:36:12.379Z,1003.12
2016-02-23T09:37:12.347Z,1003.07
2016-02-23T09:38:12.330Z,1003.1
2016-02-23T09:39:12.316Z,1003.1
2016-02-23T09:40:12.285Z,1003.13
2016-02-23T09:41:12.270Z,1003.18
2016-02-23T09:42:12.256Z,1003.16
2016-02-23T09:43:12.242Z,1003.19
2016-02-23T09:44:12.212Z,1003.16
2016-02-23T09:45:12.200Z,1003.17
2016-02-23T09:46:12.186Z,1003.22
2016-02-23T09:47:12.172Z,1003.21
2016-02-23T09:48:12.190Z,1003.21
2016-02-23T09:49:12.131Z,1003.2
2016-02-23T09:50:12.117Z,1003.2
2016-02-23T09:51:12.103Z,1003.2
2016-02-23T09:52:12.091Z,1003.24
2016-02-23T09:53:12.061Z,1003.23
2016-02-23T09:54:12.049Z,1003.25
2016-02-23T09:55:12.021Z,1003.25
2016-02-23T09:56:12.007Z,1003.26
2016-02-23T09:57:11.994Z,1003.27
2016-02-23T09:58:11.997Z,1003.29
2016-02-23T09:59:11.968Z,1003.33
2016-02-23T10:00:11.940Z,1003.36
2016-02-23T10:01:17.099Z,1003.34
2016-02-23T10:02:11.915Z,1003.38
2016-02-23T10:03:11.885Z,1003.4
2016-02-23T10:04:11.873Z,1003.37
2016-02-23T10:05:11.860Z,1003.41
2016-02-23T10:06:11.831Z,1003.39
2016-02-23T10:07:11.818Z,1003.38
2016-02-23T10:08:11.806Z,1003.4
2016-02-23T10:09:11.792Z,1003.37
2016-02-23T10:10:11.764Z,1003.39
2016-02-23T10:11:11.751Z,1003.39
2016-02-23T10:12:11.737Z,1003.43
2016-02-23T10:13:11.725Z,1003.45
2016-02-23T10:14:11.697Z,1003.48
2016-02-23T10:15:11.684Z,1003.47
2016-02-23T10:16:11.670Z,1003.52
2016-02-23T10:17:11.658Z,1003.45
2016-02-23T10:18:11.645Z,1003.46
2016-02-23T10:19:11.616Z,1003.46
2016-02-23T10:20:11.603Z,1003.49
2016-02-23T10:21:11.590Z,1003.51
2016-02-23T10:22:11.562Z,1003.49
2016-02-23T10:23:11.549Z,1003.5
2016-02-23T10:24:11.536Z,1003.49
2016-02-23T10:25:11.522Z,1003.52
2016-02-23T10:26:11.494Z,1003.49
2016-02-23T10:27:11.482Z,1003.54
2016-02-23T10:28:11.468Z,1003.52
2016-02-23T10:29:11.455Z,1003.52
2016-02-23T10:30:11.427Z,1003.44
2016-02-23T10:31:11.413Z,1003.53
2016-02-23T10:32:11.401Z,1003.5
2016-02-23T10:33:11.373Z,1003.49
2016-02-23T10:34:11.376Z,1003.44
2016-02-23T10:35:11.346Z,1003.51
2016-02-23T10:36:11.349Z,1003.82
2016-02-23T10:37:11.305Z,1003.78
2016-02-23T10:38:11.293Z,1003.81
2016-02-23T10:39:11.279Z,1003.79
2016-02-23T10:40:11.267Z,1003.8
2016-02-23T10:41:11.254Z,1003.76
2016-02-23T10:42:11.225Z,1003.77
2016-02-23T10:43:11.212Z,1003.74
2016-02-23T10:44:11.198Z,1003.72
2016-02-23T10:45:11.167Z,1003.74
2016-02-23T10:46:11.155Z,1003.75
2016-02-23T10:47:11.142Z,1003.73
2016-02-23T10:48:11.129Z,1003.75
2016-02-23T10:49:11.100Z,1003.75
2016-02-23T10:50:11.087Z,1003.75
2016-02-23T10:51:11.075Z,1003.75
2016-02-23T10:52:11.061Z,1003.78
2016-02-23T10:53:11.033Z,1003.8
2016-02-23T10:54:11.020Z,1003.76
2016-02-23T10:55:11.007Z,1003.78
2016-02-23T10:56:10.994Z,1003.78
2016-02-23T10:57:10.981Z,1003.8
2016-02-23T10:58:10.953Z,1003.73
2016-02-23T10:59:10.941Z,1003.74
2016-02-23T11:00:10.911Z,1003.75
2016-02-23T11:01:10.913Z,1003.75
2016-02-23T11:02:10.886Z,1003.76
2016-02-23T11:03:10.872Z,1003.73
2016-02-23T11:04:10.843Z,1003.75
2016-02-23T11:05:10.831Z,1003.73
2016-02-23T11:06:10.818Z,1003.73
2016-02-23T11:07:10.790Z,1003.81
2016-02-23T11:08:10.777Z,1003.76
2016-02-23T11:09:10.763Z,1003.79
2016-02-23T11:10:10.751Z,1003.77
2016-02-23T11:11:10.723Z,1003.74
2016-02-23T11:12:10.710Z,1003.72
2016-02-23T11:13:10.696Z,1003.71
2016-02-23T11:14:10.668Z,1003.7
2016-02-23T11:15:10.654Z,1003.67
2016-02-23T11:16:10.642Z,1003.4
2016-02-23T11:17:10.613Z,1003.36
2016-02-23T11:18:10.600Z,1003.41
2016-02-23T11:19:10.587Z,1003.4
2016-02-23T11:20:10.559Z,1003.42
2016-02-23T11:21:10.545Z,1003.41
2016-02-23T11:22:10.533Z,1003.37
2016-02-23T11:23:10.520Z,1003.37
2016-02-23T11:24:10.491Z,1003.36
2016-02-23T11:25:10.478Z,1003.37
2016-02-23T11:26:10.466Z,1003.4
2016-02-23T11:27:10.453Z,1003.41
2016-02-23T11:28:10.439Z,1003.4
2016-02-23T11:29:10.411Z,1003.4
2016-02-23T11:30:10.383Z,1003.39
2016-02-23T11:31:10.369Z,1003.34
2016-02-23T11:32:10.358Z,1003.35
2016-02-23T11:33:10.328Z,1003.35
2016-02-23T11:34:10.316Z,1003.32
2016-02-23T11:35:10.302Z,1003.32
2016-02-23T11:36:10.290Z,1003.3
2016-02-23T11:37:10.260Z,1003.3
2016-02-23T11:38:10.249Z,1003.28
2016-02-23T11:39:10.235Z,1003.26
2016-02-23T11:40:10.207Z,1003.31
2016-02-23T11:41:10.193Z,1003.28
2016-02-23T11:42:10.181Z,1003.26
2016-02-23T11:43:10.151Z,1003.25
2016-02-23T11:44:10.139Z,1003.28
2016-02-23T11:45:10.127Z,1003.27
2016-02-23T11:46:10.113Z,1003.24
2016-02-23T11:47:10.085Z,1003.23
2016-02-23T11:48:10.087Z,1003.25
2016-02-23T11:49:10.059Z,1003.25
2016-02-23T11:50:10.045Z,1003.22
2016-02-23T11:51:10.017Z,1003.2
2016-02-23T11:52:10.003Z,1003.19
2016-02-23T11:53:09.988Z,1003.16
2016-02-23T11:54:09.996Z,1003.18
2016-02-23T11:55:09.952Z,1003.15
2016-02-23T11:56:09.927Z,1003.14
2016-02-23T11:57:09.935Z,1003.09
2016-02-23T11:58:09.892Z,1003.07
2016-02-23T11:59:09.879Z,1003.13
2016-02-23T12:00:10.022Z,1003.11
2016-02-23T12:01:09.853Z,1003.06
2016-02-23T12:02:09.824Z,1003.09
2016-02-23T12:03:09.812Z,1003.04
2016-02-23T12:04:09.798Z,1003.07
2016-02-23T12:05:09.786Z,1003.12
2016-02-23T12:06:09.763Z,1003.06
2016-02-23T12:07:09.747Z,1003.42
2016-02-23T12:08:09.733Z,1003.39